createdAt,value
2019-05-12T00:01:48.242Z,99407.44
2019-05-12T00:04:18.931Z,99407.23
2019-05-12T00:06:48.445Z,99415.41
2019-05-12T00:09:18.825Z,99423.31
2019-05-12T00:11:48.541Z,99422.44
2019-05-12T00:14:17.918Z,99426.16
2019-05-12T00:16:49.156Z,99423.77
2019-05-12T00:19:54.250Z,99428.80
2019-05-12T00:22:25.307Z,99433.23
2019-05-12T00:24:54.389Z,99437.00
2019-05-12T00:27:24.670Z,99434.14
2019-05-12T00:29:52.838Z,99436.23
2019-05-12T00:32:22.311Z,99442.14
2019-05-12T00:34:51.480Z,99446.55
2019-05-12T00:37:20.425Z,99445.59
2019-05-12T00:39:49.597Z,99451.84
2019-05-12T00:42:18.625Z,99445.89
2019-05-12T00:44:47.904Z,99445.89
2019-05-12T00:47:18.769Z,99459.30
2019-05-12T00:49:48.913Z,99456.05
2019-05-12T00:52:19.694Z,99458.78
2019-05-12T00:54:48.959Z,99458.78
2019-05-12T00:57:18.246Z,99457.92
2019-05-12T00:59:47.896Z,99460.20
2019-05-12T01:02:18.296Z,99464.52
2019-05-12T01:04:48.706Z,99466.20
2019-05-12T01:07:18.342Z,99466.27
2019-05-12T01:09:49.146Z,99468.90
2019-05-12T01:12:18.422Z,99460.32
2019-05-12T01:14:47.888Z,99469.16
2019-05-12T01:17:17.730Z,99474.95
2019-05-12T01:19:48.743Z,99475.39
2019-05-12T01:22:18.689Z,99476.58
2019-05-12T01:24:48.298Z,99477.97
2019-05-12T01:27:18.075Z,99484.73
2019-05-12T01:29:48.085Z,99484.73
2019-05-12T01:32:29.500Z,99481.27
2019-05-12T01:34:59.482Z,99495.42
2019-05-12T01:37:29.978Z,99497.77
2019-05-12T01:40:00.056Z,99497.19
2019-05-12T01:42:29.390Z,99500.95
2019-05-12T01:44:58.550Z,99508.91
2019-05-12T01:47:28.947Z,99502.44
2019-05-12T01:49:58.217Z,99508.08
2019-05-12T01:52:28.606Z,99514.67
2019-05-12T01:54:58.902Z,99522.14
2019-05-12T01:57:28.901Z,99522.63
2019-05-12T01:59:59.075Z,99523.37
2019-05-12T02:02:28.596Z,99521.37
2019-05-12T02:05:08.481Z,99523.23
2019-05-12T02:07:49.459Z,99541.27
2019-05-12T02:10:19.785Z,99543.84
2019-05-12T02:12:49.220Z,99554.20
2019-05-12T02:15:19.872Z,99542.95
2019-05-12T02:17:48.677Z,99556.65
2019-05-12T02:20:18.805Z,99554.81
2019-05-12T02:22:48.891Z,99554.81
2019-05-12T02:25:18.932Z,99562.09
2019-05-12T02:27:47.906Z,99564.80
2019-05-12T02:30:20.260Z,99557.86
2019-05-12T02:32:57.311Z,99571.88
2019-05-12T02:35:20.415Z,99581.86
2019-05-12T02:37:49.423Z,99583.98
2019-05-12T02:40:20.415Z,99595.86
2019-05-12T02:42:49.559Z,99591.36
2019-05-12T02:45:18.747Z,99597.24
2019-05-12T02:47:47.697Z,99592.52
2019-05-12T02:50:40.275Z,99597.54
2019-05-12T02:53:09.400Z,99607.01
2019-05-12T02:55:40.587Z,99609.78
2019-05-12T02:58:15.156Z,99618.53
2019-05-12T03:00:45.964Z,99618.53
2019-05-12T03:03:19.065Z,99625.45
2019-05-12T03:05:54.728Z,99627.56
2019-05-12T03:08:25.591Z,99642.50
2019-05-12T03:10:56.614Z,99642.50
2019-05-12T03:13:25.664Z,99646.62
2019-05-12T03:15:54.851Z,99656.22
2019-05-12T03:18:25.275Z,99656.22
2019-05-12T03:20:54.887Z,99653.33
2019-05-12T03:23:24.976Z,99657.94
2019-05-12T03:25:55.168Z,99656.85
2019-05-12T03:28:25.575Z,99666.44
2019-05-12T03:30:57.541Z,99672.19
2019-05-12T03:33:33.325Z,99673.15
2019-05-12T03:36:00.937Z,99680.16
2019-05-12T03:38:27.947Z,99680.50
2019-05-12T03:40:57.067Z,99680.50
2019-05-12T03:43:26.060Z,99692.94
2019-05-12T03:45:55.834Z,99699.13
2019-05-12T03:48:25.382Z,99698.92
2019-05-12T03:50:54.554Z,99703.48
2019-05-12T03:53:24.685Z,99703.48
2019-05-12T03:55:55.296Z,99711.80
2019-05-12T03:58:25.561Z,99717.86
2019-05-12T04:00:55.383Z,99712.00
2019-05-12T04:03:24.843Z,99723.28
2019-05-12T04:05:55.339Z,99723.28
2019-05-12T04:08:24.803Z,99730.75
2019-05-12T04:10:57.656Z,99730.75
2019-05-12T04:13:26.861Z,99731.39
2019-05-12T04:15:55.960Z,99734.69
2019-05-12T04:18:30.469Z,99738.42
2019-05-12T04:20:59.068Z,99741.38
2019-05-12T04:23:27.908Z,99744.58
2019-05-12T04:26:07.377Z,99746.59
2019-05-12T04:28:27.555Z,99758.43
2019-05-12T04:30:56.736Z,99758.43
2019-05-12T04:33:25.777Z,99759.16
2019-05-12T04:35:55.496Z,99763.86
2019-05-12T04:38:24.814Z,99764.59
2019-05-12T04:40:55.267Z,99764.59
2019-05-12T04:43:25.455Z,99778.56
2019-05-12T04:45:54.981Z,99783.77
2019-05-12T04:48:25.834Z,99786.33
2019-05-12T04:50:55.023Z,99782.72
2019-05-12T04:53:25.208Z,99785.48
2019-05-12T04:56:10.613Z,99791.75
2019-05-12T04:58:30.020Z,99794.01
2019-05-12T05:00:58.925Z,99805.59
2019-05-12T05:03:27.937Z,99808.15
2019-05-12T05:05:56.949Z,99813.34
2019-05-12T05:08:26.217Z,99814.95
2019-05-12T05:10:56.972Z,99824.09
2019-05-12T05:13:25.964Z,99828.17
2019-05-12T05:15:55.084Z,99838.20
2019-05-12T05:18:24.729Z,99831.39
2019-05-12T05:20:54.176Z,99839.81
2019-05-12T05:23:24.112Z,99843.52
2019-05-12T05:25:53.934Z,99852.59
2019-05-12T05:28:23.618Z,99854.84
2019-05-12T05:30:53.494Z,99856.21
2019-05-12T05:33:23.853Z,99864.41
2019-05-12T05:35:54.304Z,99864.41
2019-05-12T05:38:24.712Z,99873.55
2019-05-12T05:40:54.139Z,99873.55
2019-05-12T05:43:24.187Z,99875.92
2019-05-12T05:46:01.819Z,99892.33
2019-05-12T05:48:24.591Z,99888.34
2019-05-12T05:50:54.018Z,99891.05
2019-05-12T05:53:24.275Z,99891.05
2019-05-12T05:55:58.621Z,99895.69
2019-05-12T05:58:26.162Z,99902.14
2019-05-12T06:01:02.880Z,99898.96
2019-05-12T06:03:28.124Z,99902.06
2019-05-12T06:06:01.519Z,99904.83
2019-05-12T06:08:28.468Z,99900.50
2019-05-12T06:10:57.616Z,99905.25
2019-05-12T06:13:30.474Z,99912.00
2019-05-12T06:15:57.448Z,99913.61
2019-05-12T06:18:29.056Z,99916.50
2019-05-12T06:20:59.023Z,99921.58
2019-05-12T06:23:28.983Z,99925.20
2019-05-12T06:25:59.513Z,99929.11
2019-05-12T06:28:31.048Z,99941.64
2019-05-12T06:30:59.993Z,99941.64
2019-05-12T06:33:31.448Z,99939.97
2019-05-12T06:36:03.730Z,99941.93
2019-05-12T06:38:37.146Z,99949.68
2019-05-12T06:41:04.751Z,99952.05
2019-05-12T06:43:35.296Z,99960.27
2019-05-12T06:46:04.911Z,99963.84
2019-05-12T06:48:34.116Z,99967.01
2019-05-12T06:51:23.658Z,99953.69
2019-05-12T06:53:53.535Z,99957.81
2019-05-12T06:56:23.629Z,99963.28
2019-05-12T06:58:53.502Z,99963.28
2019-05-12T07:01:24.171Z,99964.83
2019-05-12T07:03:53.680Z,99964.83
2019-05-12T07:06:24.745Z,99978.29
2019-05-12T07:09:03.444Z,99984.59
2019-05-12T07:11:24.969Z,99976.36
2019-05-12T07:14:04.029Z,99984.77
2019-05-12T07:16:30.077Z,99982.24
2019-05-12T07:18:55.907Z,99985.09
2019-05-12T07:21:27.294Z,99985.09
2019-05-12T07:24:00.370Z,99992.69
2019-05-12T07:26:27.120Z,100001.17
2019-05-12T07:28:56.577Z,99997.16
2019-05-12T07:31:26.068Z,99987.91
2019-05-12T07:33:55.596Z,99987.91
2019-05-12T07:36:24.943Z,100007.46
2019-05-12T07:39:03.790Z,100007.46
2019-05-12T07:41:30.753Z,100017.42
2019-05-12T07:44:00.941Z,100009.98
2019-05-12T07:46:31.477Z,100022.94
2019-05-12T07:49:00.579Z,100028.38
2019-05-12T07:51:30.517Z,100041.05
2019-05-12T07:54:01.054Z,100041.05
2019-05-12T07:56:32.697Z,100049.30
2019-05-12T07:59:04.209Z,100043.59
2019-05-12T08:01:35.835Z,100056.42
2019-05-12T08:04:04.539Z,100055.17
2019-05-12T08:06:41.821Z,100056.46
2019-05-12T08:09:08.112Z,100054.17
2019-05-12T08:11:39.005Z,100054.77
2019-05-12T08:14:13.754Z,100059.14
2019-05-12T08:16:41.159Z,100058.42
2019-05-12T08:19:14.991Z,100060.13
2019-05-12T08:21:43.908Z,100049.03
2019-05-12T08:24:14.323Z,100057.86
2019-05-12T08:26:49.598Z,100057.86
2019-05-12T08:29:21.435Z,100056.64
2019-05-12T08:31:48.717Z,100067.64
2019-05-12T08:34:17.864Z,100069.11
2019-05-12T08:36:53.045Z,100075.30
2019-05-12T08:39:22.739Z,100062.17
2019-05-12T08:41:50.305Z,100063.70
2019-05-12T08:44:24.606Z,100063.86
2019-05-12T08:46:56.295Z,100069.03
2019-05-12T08:49:23.625Z,100077.54
2019-05-12T08:51:57.858Z,100080.38
2019-05-12T08:54:24.133Z,100078.78
2019-05-12T08:56:57.043Z,100068.52
2019-05-12T08:59:27.302Z,100070.41
2019-05-12T09:02:00.125Z,100079.47
2019-05-12T09:04:26.404Z,100083.47
2019-05-12T09:06:59.720Z,100080.14
2019-05-12T09:09:26.589Z,100085.56
2019-05-12T09:11:55.931Z,100098.64
2019-05-12T09:14:25.846Z,100098.64
2019-05-12T09:17:02.729Z,100091.23
2019-05-12T09:19:27.191Z,100102.81
2019-05-12T09:21:56.521Z,100094.72
2019-05-12T09:24:27.380Z,100098.12
2019-05-12T09:26:58.967Z,100100.32
2019-05-12T09:29:26.992Z,100123.84
2019-05-12T09:31:59.183Z,100114.84
2019-05-12T09:34:27.616Z,100122.83
2019-05-12T09:36:59.528Z,100111.87
2019-05-12T09:39:27.753Z,100114.27
2019-05-12T09:41:57.059Z,100114.27
2019-05-12T09:44:30.376Z,100106.94
2019-05-12T09:46:57.762Z,100112.50
2019-05-12T09:49:30.946Z,100112.50
2019-05-12T09:51:57.126Z,100122.20
2019-05-12T09:54:35.436Z,100117.67
2019-05-12T09:56:59.658Z,100119.88
2019-05-12T09:59:29.159Z,100123.31
2019-05-12T10:01:58.520Z,100137.23
2019-05-12T10:04:27.762Z,100134.44
2019-05-12T10:06:55.858Z,100146.29
2019-05-12T10:09:24.998Z,100133.13
2019-05-12T10:12:00.534Z,100137.52
2019-05-12T10:14:25.537Z,100139.36
2019-05-12T10:16:54.820Z,100143.75
2019-05-12T10:19:24.096Z,100139.21
2019-05-12T10:21:55.281Z,100134.73
2019-05-12T10:24:25.149Z,100138.27
2019-05-12T10:26:54.774Z,100139.88
2019-05-12T10:29:29.321Z,100145.86
2019-05-12T10:31:55.933Z,100149.70
2019-05-12T10:34:29.281Z,100149.70
2019-05-12T10:36:59.671Z,100144.08
2019-05-12T10:39:33.482Z,100135.98
2019-05-12T10:42:03.751Z,100135.98
2019-05-12T10:44:40.127Z,100137.53
2019-05-12T10:47:04.916Z,100141.85
2019-05-12T10:49:35.142Z,100135.20
2019-05-12T10:52:04.444Z,100146.70
2019-05-12T10:54:34.301Z,100148.66
2019-05-12T10:57:05.049Z,100146.03
2019-05-12T10:59:38.882Z,100147.83
2019-05-12T11:02:05.648Z,100168.45
2019-05-12T11:04:38.985Z,100172.77
2019-05-12T11:07:05.837Z,100158.66
2019-05-12T11:09:35.926Z,100158.66
2019-05-12T11:12:05.023Z,100167.83
2019-05-12T11:14:34.550Z,100166.11
2019-05-12T11:17:07.715Z,100164.71
2019-05-12T11:19:40.637Z,100162.77
2019-05-12T11:22:07.881Z,100164.64
2019-05-12T11:24:37.095Z,100171.77
2019-05-12T11:27:06.249Z,100172.09
2019-05-12T11:29:45.664Z,100175.72
2019-05-12T11:32:06.244Z,100175.52
2019-05-12T11:34:35.757Z,100177.83
2019-05-12T11:37:04.956Z,100176.94
2019-05-12T11:39:37.100Z,100170.72
2019-05-12T11:42:04.965Z,100176.03
2019-05-12T11:44:34.065Z,100172.30
2019-05-12T11:47:03.728Z,100171.84
2019-05-12T11:49:33.603Z,100160.53
2019-05-12T11:52:07.465Z,100163.35
2019-05-12T11:54:33.577Z,100163.35
2019-05-12T11:57:03.065Z,100176.59
2019-05-12T11:59:34.005Z,100176.59
2019-05-12T12:02:03.302Z,100181.64
2019-05-12T12:04:57.955Z,100184.81
2019-05-12T12:07:26.894Z,100185.96
2019-05-12T12:09:59.294Z,100186.77
2019-05-12T12:12:29.755Z,100194.69
2019-05-12T12:14:57.999Z,100194.69
2019-05-12T12:17:30.902Z,100192.16
2019-05-12T12:19:57.969Z,100197.16
2019-05-12T12:22:29.880Z,100193.15
2019-05-12T12:25:04.699Z,100194.89
2019-05-12T12:27:28.845Z,100195.84
2019-05-12T12:29:57.718Z,100193.15
2019-05-12T12:32:25.863Z,100188.72
2019-05-12T12:34:54.788Z,100192.46
2019-05-12T12:37:24.424Z,100197.44
2019-05-12T12:39:53.867Z,100202.22
2019-05-12T12:42:24.211Z,100202.33
2019-05-12T12:44:58.147Z,100207.68
2019-05-12T12:47:24.761Z,100216.00
2019-05-12T12:49:54.633Z,100208.55
2019-05-12T12:52:24.377Z,100202.91
2019-05-12T12:54:54.314Z,100204.25
2019-05-12T12:57:29.853Z,100201.39
2019-05-12T12:59:55.483Z,100204.84
2019-05-12T13:02:24.886Z,100201.38
2019-05-12T13:04:53.987Z,100193.80
2019-05-12T13:07:24.172Z,100194.56
2019-05-12T13:09:55.013Z,100199.51
2019-05-12T13:12:23.950Z,100195.18
2019-05-12T13:14:53.276Z,100198.23
2019-05-12T13:17:29.055Z,100190.20
2019-05-12T13:19:54.716Z,100200.65
2019-05-12T13:22:24.613Z,100198.34
2019-05-12T13:24:58.160Z,100207.55
2019-05-12T13:27:28.973Z,100207.97
2019-05-12T13:29:55.574Z,100212.58
2019-05-12T13:32:32.044Z,100201.70
2019-05-12T13:34:54.985Z,100201.70
2019-05-12T13:37:24.066Z,100205.70
2019-05-12T13:39:58.526Z,100202.80
2019-05-12T13:42:24.211Z,100195.48
2019-05-12T13:44:53.445Z,100190.98
2019-05-12T13:47:22.573Z,100185.30
2019-05-12T13:49:50.915Z,100201.55
2019-05-12T13:52:26.299Z,100201.55
2019-05-12T13:54:52.151Z,100193.88
2019-05-12T13:57:23.475Z,100198.50
2019-05-12T13:59:53.768Z,100191.08
2019-05-12T14:02:23.558Z,100182.95
2019-05-12T14:04:53.618Z,100195.79
2019-05-12T14:07:23.661Z,100200.07
2019-05-12T14:09:51.905Z,100200.07
2019-05-12T14:12:21.106Z,100200.34
2019-05-12T14:14:50.536Z,100189.58
2019-05-12T14:17:19.985Z,100187.36
2019-05-12T14:19:48.971Z,100191.58
2019-05-12T14:22:26.228Z,100188.38
2019-05-12T14:24:49.480Z,100189.33
2019-05-12T14:27:18.994Z,100186.53
2019-05-12T14:29:48.850Z,100180.58
2019-05-12T14:32:19.200Z,100189.83
2019-05-12T14:34:58.683Z,100183.30
2019-05-12T14:37:24.325Z,100186.09
2019-05-12T14:39:53.765Z,100186.00
2019-05-12T14:42:26.117Z,100188.98
2019-05-12T14:44:54.147Z,100180.23
2019-05-12T14:47:25.755Z,100185.63
2019-05-12T14:49:55.101Z,100208.23
2019-05-12T14:52:24.175Z,100208.23
2019-05-12T14:54:54.184Z,100201.25
2019-05-12T14:57:29.296Z,100199.45
2019-05-12T14:59:57.979Z,100197.75
2019-05-12T15:02:29.379Z,100194.00
2019-05-12T15:05:00.230Z,100196.66
2019-05-12T15:07:30.457Z,100207.61
2019-05-12T15:10:02.284Z,100188.45
2019-05-12T15:12:30.005Z,100207.49
2019-05-12T15:14:59.534Z,100197.27
2019-05-12T15:17:27.910Z,100209.04
2019-05-12T15:20:00.216Z,100209.04
2019-05-12T15:22:28.100Z,100213.80
2019-05-12T15:24:59.000Z,100202.52
2019-05-12T15:27:42.088Z,100207.50
2019-05-12T15:29:59.914Z,100203.27
2019-05-12T15:32:29.624Z,100203.27
2019-05-12T15:34:58.030Z,100202.45
2019-05-12T15:37:29.027Z,100228.27
2019-05-12T15:40:06.706Z,100220.11
2019-05-12T15:42:35.093Z,100221.26
2019-05-12T15:45:11.146Z,100214.66
2019-05-12T15:47:37.311Z,100220.31
2019-05-12T15:50:07.911Z,100219.22
2019-05-12T15:52:42.231Z,100220.44
2019-05-12T15:55:09.294Z,100213.87
2019-05-12T15:57:38.636Z,100228.82
2019-05-12T16:00:10.303Z,100220.47
2019-05-12T16:02:39.460Z,100220.47
2019-05-12T16:05:08.901Z,100228.66
2019-05-12T16:07:39.589Z,100222.88
2019-05-12T16:10:11.513Z,100227.16
2019-05-12T16:12:42.925Z,100229.28
2019-05-12T16:15:17.048Z,100235.08
2019-05-12T16:17:44.113Z,100238.77
2019-05-12T16:20:14.470Z,100237.70
2019-05-12T16:22:45.112Z,100232.48
2019-05-12T16:25:15.448Z,100232.48
2019-05-12T16:27:45.142Z,100242.67
2019-05-12T16:30:20.229Z,100236.55
2019-05-12T16:32:48.520Z,100239.02
2019-05-12T16:35:25.552Z,100240.33
2019-05-12T16:37:50.139Z,100239.00
2019-05-12T16:40:19.671Z,100242.23
2019-05-12T16:42:53.577Z,100245.88
2019-05-12T16:45:20.248Z,100245.88
2019-05-12T16:47:50.076Z,100255.05
2019-05-12T16:50:25.404Z,100255.48
2019-05-12T16:52:50.777Z,100250.23
2019-05-12T16:55:20.892Z,100253.16
2019-05-12T16:57:52.939Z,100250.92
2019-05-12T17:00:24.220Z,100253.80
2019-05-12T17:02:57.779Z,100256.92
2019-05-12T17:05:25.554Z,100254.75
2019-05-12T17:07:55.813Z,100258.44
2019-05-12T17:10:25.074Z,100256.61
2019-05-12T17:12:54.463Z,100261.04
2019-05-12T17:15:23.717Z,100267.80
2019-05-12T17:17:56.969Z,100268.14
2019-05-12T17:20:23.006Z,100268.14
2019-05-12T17:22:55.185Z,100266.27
2019-05-12T17:25:24.586Z,100272.04
2019-05-12T17:27:52.997Z,100273.23
2019-05-12T17:30:23.909Z,100273.23
2019-05-12T17:33:00.631Z,100278.89
2019-05-12T17:35:31.459Z,100281.71
2019-05-12T17:37:57.034Z,100281.71
2019-05-12T17:40:26.504Z,100285.22
2019-05-12T17:42:59.829Z,100291.86
2019-05-12T17:45:33.747Z,100297.63
2019-05-12T17:48:07.436Z,100297.55
2019-05-12T17:50:34.716Z,100294.91
2019-05-12T17:53:04.527Z,100306.89
2019-05-12T17:55:33.210Z,100312.38
2019-05-12T17:58:04.122Z,100312.38
2019-05-12T18:00:33.628Z,100310.77
2019-05-12T18:03:15.695Z,100321.59
2019-05-12T18:05:34.073Z,100318.81
2019-05-12T18:08:04.309Z,100313.88
2019-05-12T18:10:37.852Z,100322.54
2019-05-12T18:13:04.040Z,100325.50
2019-05-12T18:15:37.709Z,100325.50
2019-05-12T18:18:04.202Z,100333.25
2019-05-12T18:20:40.022Z,100334.35
2019-05-12T18:23:05.695Z,100342.73
2019-05-12T18:25:36.854Z,100342.70
2019-05-12T18:28:06.303Z,100345.28
2019-05-12T18:30:35.166Z,100343.15
2019-05-12T18:33:09.136Z,100344.38
2019-05-12T18:35:36.445Z,100349.16
2019-05-12T18:38:07.913Z,100355.34
2019-05-12T18:40:36.582Z,100350.09
2019-05-12T18:43:06.790Z,100355.58
2019-05-12T18:45:35.778Z,100355.58
2019-05-12T18:48:08.303Z,100359.97
2019-05-12T18:50:36.738Z,100362.17
2019-05-12T18:53:05.747Z,100366.66
2019-05-12T18:55:35.870Z,100375.20
2019-05-12T18:58:05.490Z,100369.72
2019-05-12T19:00:35.553Z,100367.15
2019-05-12T19:03:08.694Z,100366.41
2019-05-12T19:05:36.010Z,100366.41
2019-05-12T19:08:05.585Z,100371.84
2019-05-12T19:10:38.562Z,100363.88
2019-05-12T19:13:06.749Z,100363.88
2019-05-12T19:15:36.146Z,100377.92
2019-05-12T19:18:05.772Z,100386.73
2019-05-12T19:20:36.291Z,100389.02
2019-05-12T19:23:07.331Z,100394.11
2019-05-12T19:25:40.801Z,100397.20
2019-05-12T19:29:06.203Z,100401.01
2019-05-12T19:31:36.687Z,100411.33
2019-05-12T19:44:38.629Z,100423.28
2019-05-12T19:47:21.292Z,100423.28
2019-05-12T19:49:50.711Z,100418.95
2019-05-12T19:52:20.993Z,100424.34
2019-05-12T19:54:51.060Z,100422.34
2019-05-12T19:57:21.946Z,100424.66
2019-05-12T19:59:55.818Z,100428.58
2019-05-12T20:02:24.159Z,100428.58
2019-05-12T20:04:56.597Z,100428.91
2019-05-12T20:07:24.609Z,100424.63
2019-05-12T20:09:58.671Z,100427.50
2019-05-12T20:13:35.878Z,100428.05
2019-05-12T20:16:04.720Z,100435.45
2019-05-12T20:18:34.346Z,100440.06
2019-05-12T20:21:04.592Z,100437.29
2019-05-12T20:23:33.803Z,100443.55
2019-05-12T20:26:03.972Z,100443.55
2019-05-12T20:28:34.688Z,100442.05
2019-05-12T20:31:06.122Z,100446.48
2019-05-12T20:33:35.476Z,100449.05
2019-05-12T20:36:04.597Z,100451.81
2019-05-12T20:38:36.232Z,100452.52
2019-05-12T20:41:04.805Z,100460.68
2019-05-12T20:43:38.097Z,100457.32
2019-05-12T20:46:13.035Z,100453.29
2019-05-12T20:48:40.309Z,100453.84
2019-05-12T20:51:15.313Z,100459.81
2019-05-12T20:53:40.824Z,100460.27
2019-05-12T20:56:12.220Z,100462.27
2019-05-12T20:58:45.813Z,100460.39
2019-05-12T21:01:13.910Z,100460.09
2019-05-12T21:03:46.246Z,100453.90
2019-05-12T21:06:16.632Z,100457.20
2019-05-12T21:08:53.315Z,100457.50
2019-05-12T21:11:17.520Z,100454.81
2019-05-12T21:13:47.186Z,100451.52
2019-05-12T21:16:20.282Z,100452.72
2019-05-12T21:18:56.156Z,100456.15
2019-05-12T21:21:27.271Z,100450.34
2019-05-12T21:23:53.882Z,100457.31
2019-05-12T21:26:28.555Z,100453.21
2019-05-12T21:28:54.725Z,100447.37
2019-05-12T21:31:26.696Z,100456.48
2019-05-12T21:33:54.140Z,100455.60
2019-05-12T21:36:26.792Z,100458.88
2019-05-12T21:38:59.617Z,100459.25
2019-05-12T21:41:26.302Z,100459.25
2019-05-12T21:44:00.162Z,100456.32
2019-05-12T21:46:26.523Z,100463.03
2019-05-12T21:48:56.232Z,100462.66
2019-05-12T21:51:26.546Z,100457.98
2019-05-12T21:53:57.646Z,100464.37
2019-05-12T21:56:26.753Z,100459.61
2019-05-12T21:58:58.234Z,100459.61
2019-05-12T22:01:26.305Z,100461.02
2019-05-12T22:04:02.060Z,100458.13
2019-05-12T22:06:26.466Z,100459.69
2019-05-12T22:09:01.596Z,100456.91
2019-05-12T22:11:34.654Z,100461.27
2019-05-12T22:14:05.128Z,100465.86
2019-05-12T22:16:43.253Z,100472.98
2019-05-12T22:19:07.908Z,100481.09
2019-05-12T22:21:47.566Z,100481.09
2019-05-12T22:24:10.620Z,100479.54
2019-05-12T22:26:43.480Z,100483.01
2019-05-12T22:29:13.384Z,100483.01
2019-05-12T22:31:48.228Z,100486.70
2019-05-12T22:34:16.923Z,100487.50
2019-05-12T22:37:06.139Z,100486.48
2019-05-12T22:39:37.294Z,100498.66
2019-05-12T22:42:11.618Z,100501.63
2019-05-12T22:44:39.085Z,100501.52
2019-05-12T22:47:12.700Z,100502.44
2019-05-12T22:49:40.494Z,100506.41
2019-05-12T22:52:09.586Z,100507.52
2019-05-12T22:54:40.501Z,100502.34
2019-05-12T22:57:09.136Z,100495.46
2019-05-12T22:59:40.631Z,100508.69
2019-05-12T23:02:09.439Z,100508.05
2019-05-12T23:04:40.601Z,100509.80
2019-05-12T23:07:10.021Z,100511.20
2019-05-12T23:09:39.443Z,100517.83
2019-05-12T23:12:09.782Z,100513.64
2019-05-12T23:14:39.513Z,100513.69
2019-05-12T23:17:08.410Z,100512.19
2019-05-12T23:22:35.132Z,100511.78
2019-05-12T23:25:03.828Z,100515.34
2019-05-12T23:27:33.372Z,100516.45
2019-05-12T23:30:10.941Z,100520.41
2019-05-12T23:32:34.606Z,100523.86
2019-05-12T23:35:03.903Z,100518.87
2019-05-12T23:37:36.162Z,100518.87
2019-05-12T23:40:04.410Z,100511.67
2019-05-12T23:42:34.338Z,100514.32
2019-05-12T23:45:03.849Z,100514.32
2019-05-12T23:47:34.305Z,100512.45
2019-05-12T23:50:04.299Z,100509.92
2019-05-12T23:52:34.603Z,100505.26
2019-05-12T23:55:04.541Z,100500.39
2019-05-12T23:57:33.812Z,100502.62
